sensor_id;sensor_type;location;lat;lon;timestamp;temperature;humidity
67799;SHT30;54596;43.216;27.904;2023-06-19T00:00:07;20.72;82.61
67799;SHT30;54596;43.216;27.904;2023-06-19T00:02:39;20.68;82.69
67799;SHT30;54596;43.216;27.904;2023-06-19T00:05:06;20.68;82.78
67799;SHT30;54596;43.216;27.904;2023-06-19T00:07:31;20.68;83.00
67799;SHT30;54596;43.216;27.904;2023-06-19T00:09:58;20.68;82.83
67799;SHT30;54596;43.216;27.904;2023-06-19T00:12:24;20.71;82.90
67799;SHT30;54596;43.216;27.904;2023-06-19T00:14:50;20.72;82.78
67799;SHT30;54596;43.216;27.904;2023-06-19T00:17:16;20.68;82.99
67799;SHT30;54596;43.216;27.904;2023-06-19T00:19:42;20.68;83.14
67799;SHT30;54596;43.216;27.904;2023-06-19T00:22:08;20.71;83.01
67799;SHT30;54596;43.216;27.904;2023-06-19T00:24:33;20.72;83.22
67799;SHT30;54596;43.216;27.904;2023-06-19T00:26:59;20.72;83.25
67799;SHT30;54596;43.216;27.904;2023-06-19T00:29:31;20.74;83.47
67799;SHT30;54596;43.216;27.904;2023-06-19T00:31:59;20.77;83.41
67799;SHT30;54596;43.216;27.904;2023-06-19T00:34:24;20.78;83.47
67799;SHT30;54596;43.216;27.904;2023-06-19T00:36:50;20.79;83.47
67799;SHT30;54596;43.216;27.904;2023-06-19T00:39:16;20.81;83.46
67799;SHT30;54596;43.216;27.904;2023-06-19T00:41:43;20.81;83.69
67799;SHT30;54596;43.216;27.904;2023-06-19T00:44:09;20.81;83.70
67799;SHT30;54596;43.216;27.904;2023-06-19T00:46:40;20.82;83.66
67799;SHT30;54596;43.216;27.904;2023-06-19T00:49:06;20.81;83.86
67799;SHT30;54596;43.216;27.904;2023-06-19T00:51:32;20.82;84.03
67799;SHT30;54596;43.216;27.904;2023-06-19T00:53:57;20.84;84.12
67799;SHT30;54596;43.216;27.904;2023-06-19T00:56:23;20.85;84.01
67799;SHT30;54596;43.216;27.904;2023-06-19T00:58:49;20.82;84.24
67799;SHT30;54596;43.216;27.904;2023-06-19T01:01:14;20.86;84.19
67799;SHT30;54596;43.216;27.904;2023-06-19T01:03:40;20.82;84.43
67799;SHT30;54596;43.216;27.904;2023-06-19T01:06:13;20.84;84.39
67799;SHT30;54596;43.216;27.904;2023-06-19T01:11:16;20.89;84.56
67799;SHT30;54596;43.216;27.904;2023-06-19T01:13:55;20.85;84.59
67799;SHT30;54596;43.216;27.904;2023-06-19T01:16:23;20.89;84.42
67799;SHT30;54596;43.216;27.904;2023-06-19T01:18:50;20.89;84.71
67799;SHT30;54596;43.216;27.904;2023-06-19T01:21:17;20.94;84.54
67799;SHT30;54596;43.216;27.904;2023-06-19T01:23:43;20.92;84.61
67799;SHT30;54596;43.216;27.904;2023-06-19T01:26:09;20.94;84.57
67799;SHT30;54596;43.216;27.904;2023-06-19T01:28:35;20.95;84.85
67799;SHT30;54596;43.216;27.904;2023-06-19T01:31:13;20.96;84.84
67799;SHT30;54596;43.216;27.904;2023-06-19T01:33:42;20.92;84.83
67799;SHT30;54596;43.216;27.904;2023-06-19T01:36:08;20.92;85.09
67799;SHT30;54596;43.216;27.904;2023-06-19T01:38:34;20.92;84.99
67799;SHT30;54596;43.216;27.904;2023-06-19T01:41:00;20.95;85.07
67799;SHT30;54596;43.216;27.904;2023-06-19T01:43:29;20.95;85.16
67799;SHT30;54596;43.216;27.904;2023-06-19T01:45:55;20.96;85.11
67799;SHT30;54596;43.216;27.904;2023-06-19T01:48:21;20.96;85.11
67799;SHT30;54596;43.216;27.904;2023-06-19T01:50:50;20.94;85.15
67799;SHT30;54596;43.216;27.904;2023-06-19T01:53:15;20.96;85.13
67799;SHT30;54596;43.216;27.904;2023-06-19T01:55:41;20.94;85.13
67799;SHT30;54596;43.216;27.904;2023-06-19T01:58:06;20.96;85.26
67799;SHT30;54596;43.216;27.904;2023-06-19T02:00:32;20.91;85.32
67799;SHT30;54596;43.216;27.904;2023-06-19T02:03:01;20.91;85.31
67799;SHT30;54596;43.216;27.904;2023-06-19T02:05:26;20.94;85.23
67799;SHT30;54596;43.216;27.904;2023-06-19T02:07:52;20.91;85.34
67799;SHT30;54596;43.216;27.904;2023-06-19T02:10:17;20.92;85.34
67799;SHT30;54596;43.216;27.904;2023-06-19T02:12:43;20.92;85.45
67799;SHT30;54596;43.216;27.904;2023-06-19T02:15:08;20.91;85.46
67799;SHT30;54596;43.216;27.904;2023-06-19T02:17:34;20.89;85.47
67799;SHT30;54596;43.216;27.904;2023-06-19T02:20:00;20.91;85.38
67799;SHT30;54596;43.216;27.904;2023-06-19T02:22:25;20.94;85.66
67799;SHT30;54596;43.216;27.904;2023-06-19T02:24:51;20.94;85.56
67799;SHT30;54596;43.216;27.904;2023-06-19T02:27:16;20.96;85.35
67799;SHT30;54596;43.216;27.904;2023-06-19T02:29:42;21.02;85.33
67799;SHT30;54596;43.216;27.904;2023-06-19T02:32:07;21.03;85.34
67799;SHT30;54596;43.216;27.904;2023-06-19T02:34:33;21.05;85.33
67799;SHT30;54596;43.216;27.904;2023-06-19T02:36:59;21.07;85.25
67799;SHT30;54596;43.216;27.904;2023-06-19T02:39:24;21.05;85.41
67799;SHT30;54596;43.216;27.904;2023-06-19T02:41:50;21.05;85.36
67799;SHT30;54596;43.216;27.904;2023-06-19T02:44:15;21.06;85.43
67799;SHT30;54596;43.216;27.904;2023-06-19T02:46:41;21.09;85.32
67799;SHT30;54596;43.216;27.904;2023-06-19T02:49:06;21.07;85.42
67799;SHT30;54596;43.216;27.904;2023-06-19T02:51:32;21.09;85.54
67799;SHT30;54596;43.216;27.904;2023-06-19T02:53:57;21.09;85.56
67799;SHT30;54596;43.216;27.904;2023-06-19T02:56:25;21.09;85.45
67799;SHT30;54596;43.216;27.904;2023-06-19T02:58:51;21.09;85.39
67799;SHT30;54596;43.216;27.904;2023-06-19T03:01:20;21.12;85.42
67799;SHT30;54596;43.216;27.904;2023-06-19T03:03:45;21.09;85.54
67799;SHT30;54596;43.216;27.904;2023-06-19T03:06:11;21.09;85.74
67799;SHT30;54596;43.216;27.904;2023-06-19T03:08:38;21.09;85.58
67799;SHT30;54596;43.216;27.904;2023-06-19T03:11:05;21.07;85.69
67799;SHT30;54596;43.216;27.904;2023-06-19T03:13:43;21.07;85.81
67799;SHT30;54596;43.216;27.904;2023-06-19T03:16:09;21.03;85.83
67799;SHT30;54596;43.216;27.904;2023-06-19T03:18:34;21.03;85.80
67799;SHT30;54596;43.216;27.904;2023-06-19T03:21:00;21.07;85.68
67799;SHT30;54596;43.216;27.904;2023-06-19T03:23:25;21.03;85.71
67799;SHT30;54596;43.216;27.904;2023-06-19T03:25:51;21.03;85.39
67799;SHT30;54596;43.216;27.904;2023-06-19T03:28:16;21.10;85.46
67799;SHT30;54596;43.216;27.904;2023-06-19T03:30:42;21.16;85.36
67799;SHT30;54596;43.216;27.904;2023-06-19T03:33:07;21.18;85.25
67799;SHT30;54596;43.216;27.904;2023-06-19T03:35:32;21.18;84.86
67799;SHT30;54596;43.216;27.904;2023-06-19T03:37:58;21.22;84.76
67799;SHT30;54596;43.216;27.904;2023-06-19T03:40:23;21.24;84.54
67799;SHT30;54596;43.216;27.904;2023-06-19T03:42:49;21.31;84.46
67799;SHT30;54596;43.216;27.904;2023-06-19T03:45:14;21.37;84.41
67799;SHT30;54596;43.216;27.904;2023-06-19T03:47:40;21.39;84.32
67799;SHT30;54596;43.216;27.904;2023-06-19T03:50:06;21.41;84.13
67799;SHT30;54596;43.216;27.904;2023-06-19T03:52:37;21.40;84.13
67799;SHT30;54596;43.216;27.904;2023-06-19T03:55:03;21.41;83.90
67799;SHT30;54596;43.216;27.904;2023-06-19T03:57:29;21.40;84.03
67799;SHT30;54596;43.216;27.904;2023-06-19T03:59:56;21.41;84.13
67799;SHT30;54596;43.216;27.904;2023-06-19T04:02:21;21.50;84.10
67799;SHT30;54596;43.216;27.904;2023-06-19T04:04:47;21.48;84.13
67799;SHT30;54596;43.216;27.904;2023-06-19T04:07:13;21.48;84.34
67799;SHT30;54596;43.216;27.904;2023-06-19T04:09:38;21.50;83.90
67799;SHT30;54596;43.216;27.904;2023-06-19T04:12:04;21.53;83.94
67799;SHT30;54596;43.216;27.904;2023-06-19T04:14:30;21.54;83.91
67799;SHT30;54596;43.216;27.904;2023-06-19T04:16:55;21.54;84.06
67799;SHT30;54596;43.216;27.904;2023-06-19T04:19:21;21.43;84.40
67799;SHT30;54596;43.216;27.904;2023-06-19T04:21:46;21.40;84.47
67799;SHT30;54596;43.216;27.904;2023-06-19T04:24:12;21.39;84.32
67799;SHT30;54596;43.216;27.904;2023-06-19T04:26:37;21.30;84.24
67799;SHT30;54596;43.216;27.904;2023-06-19T04:29:03;21.30;83.88
67799;SHT30;54596;43.216;27.904;2023-06-19T04:31:28;21.29;83.78
67799;SHT30;54596;43.216;27.904;2023-06-19T04:33:55;21.26;83.60
67799;SHT30;54596;43.216;27.904;2023-06-19T04:36:22;21.29;83.18
67799;SHT30;54596;43.216;27.904;2023-06-19T04:38:48;21.31;82.90
67799;SHT30;54596;43.216;27.904;2023-06-19T04:41:17;21.30;82.64
67799;SHT30;54596;43.216;27.904;2023-06-19T04:43:42;21.30;82.40
67799;SHT30;54596;43.216;27.904;2023-06-19T04:46:08;21.36;82.56
67799;SHT30;54596;43.216;27.904;2023-06-19T04:48:33;21.37;82.63
67799;SHT30;54596;43.216;27.904;2023-06-19T04:51:01;21.37;82.31
67799;SHT30;54596;43.216;27.904;2023-06-19T04:53:27;21.39;82.02
67799;SHT30;54596;43.216;27.904;2023-06-19T04:55:53;21.34;81.84
67799;SHT30;54596;43.216;27.904;2023-06-19T04:58:23;21.39;81.82
67799;SHT30;54596;43.216;27.904;2023-06-19T05:00:49;21.39;81.49
67799;SHT30;54596;43.216;27.904;2023-06-19T05:03:17;21.41;81.91
67799;SHT30;54596;43.216;27.904;2023-06-19T05:05:43;21.40;81.57
67799;SHT30;54596;43.216;27.904;2023-06-19T05:08:09;21.44;81.16
67799;SHT30;54596;43.216;27.904;2023-06-19T05:10:35;21.37;80.93
67799;SHT30;54596;43.216;27.904;2023-06-19T05:13:00;21.41;81.00
67799;SHT30;54596;43.216;27.904;2023-06-19T05:15:27;21.48;80.75
67799;SHT30;54596;43.216;27.904;2023-06-19T05:17:53;21.54;80.36
67799;SHT30;54596;43.216;27.904;2023-06-19T05:20:19;21.50;80.37
67799;SHT30;54596;43.216;27.904;2023-06-19T05:22:45;21.51;80.58
67799;SHT30;54596;43.216;27.904;2023-06-19T05:25:11;21.58;80.20
67799;SHT30;54596;43.216;27.904;2023-06-19T05:27:37;21.59;79.58
67799;SHT30;54596;43.216;27.904;2023-06-19T05:30:03;21.58;79.47
67799;SHT30;54596;43.216;27.904;2023-06-19T05:32:29;21.62;78.98
67799;SHT30;54596;43.216;27.904;2023-06-19T05:34:55;21.57;78.39
67799;SHT30;54596;43.216;27.904;2023-06-19T05:37:20;21.61;78.03
67799;SHT30;54596;43.216;27.904;2023-06-19T05:39:47;21.65;77.98
67799;SHT30;54596;43.216;27.904;2023-06-19T05:42:13;21.65;77.73
67799;SHT30;54596;43.216;27.904;2023-06-19T05:44:38;21.69;77.58
67799;SHT30;54596;43.216;27.904;2023-06-19T05:47:05;21.74;77.64
67799;SHT30;54596;43.216;27.904;2023-06-19T05:49:31;21.81;77.22
67799;SHT30;54596;43.216;27.904;2023-06-19T05:51:56;21.84;76.45
67799;SHT30;54596;43.216;27.904;2023-06-19T05:54:25;21.99;76.27
67799;SHT30;54596;43.216;27.904;2023-06-19T05:56:51;22.19;75.59
67799;SHT30;54596;43.216;27.904;2023-06-19T05:59:16;22.45;74.89
67799;SHT30;54596;43.216;27.904;2023-06-19T06:01:42;22.72;74.42
67799;SHT30;54596;43.216;27.904;2023-06-19T06:04:07;22.76;73.33
67799;SHT30;54596;43.216;27.904;2023-06-19T06:06:33;23.07;72.88
67799;SHT30;54596;43.216;27.904;2023-06-19T06:08:58;23.07;72.39
67799;SHT30;54596;43.216;27.904;2023-06-19T06:11:24;23.41;71.46
67799;SHT30;54596;43.216;27.904;2023-06-19T06:13:49;23.44;71.66
67799;SHT30;54596;43.216;27.904;2023-06-19T06:16:15;24.12;69.88
67799;SHT30;54596;43.216;27.904;2023-06-19T06:18:40;25.26;68.42
67799;SHT30;54596;43.216;27.904;2023-06-19T06:21:06;26.36;64.99
67799;SHT30;54596;43.216;27.904;2023-06-19T06:23:31;27.07;62.92
67799;SHT30;54596;43.216;27.904;2023-06-19T06:25:57;27.97;60.83
67799;SHT30;54596;43.216;27.904;2023-06-19T06:28:27;27.47;61.81
67799;SHT30;54596;43.216;27.904;2023-06-19T06:30:53;28.21;60.81
67799;SHT30;54596;43.216;27.904;2023-06-19T06:33:18;27.52;60.87
67799;SHT30;54596;43.216;27.904;2023-06-19T06:35:44;27.30;61.44
67799;SHT30;54596;43.216;27.904;2023-06-19T06:38:09;27.34;61.81
67799;SHT30;54596;43.216;27.904;2023-06-19T06:40:35;27.34;61.52
67799;SHT30;54596;43.216;27.904;2023-06-19T06:43:00;26.81;62.53
67799;SHT30;54596;43.216;27.904;2023-06-19T06:45:26;27.10;61.64
67799;SHT30;54596;43.216;27.904;2023-06-19T06:47:51;27.90;60.27
67799;SHT30;54596;43.216;27.904;2023-06-19T06:50:17;27.75;60.38
67799;SHT30;54596;43.216;27.904;2023-06-19T06:52:42;28.27;59.24
67799;SHT30;54596;43.216;27.904;2023-06-19T06:55:08;28.65;58.45
67799;SHT30;54596;43.216;27.904;2023-06-19T06:57:33;29.11;57.60
67799;SHT30;54596;43.216;27.904;2023-06-19T06:59:59;29.35;57.85
67799;SHT30;54596;43.216;27.904;2023-06-19T07:02:24;29.99;55.87
67799;SHT30;54596;43.216;27.904;2023-06-19T07:04:50;30.25;55.31
67799;SHT30;54596;43.216;27.904;2023-06-19T07:07:16;30.93;53.92
67799;SHT30;54596;43.216;27.904;2023-06-19T07:09:41;31.38;52.76
67799;SHT30;54596;43.216;27.904;2023-06-19T07:12:07;31.13;52.29
67799;SHT30;54596;43.216;27.904;2023-06-19T07:14:33;31.58;51.90
67799;SHT30;54596;43.216;27.904;2023-06-19T07:16:58;31.72;50.86
67799;SHT30;54596;43.216;27.904;2023-06-19T07:19:24;31.82;50.68
67799;SHT30;54596;43.216;27.904;2023-06-19T07:21:52;31.88;50.33
67799;SHT30;54596;43.216;27.904;2023-06-19T07:24:18;31.64;50.84
67799;SHT30;54596;43.216;27.904;2023-06-19T07:26:45;30.74;52.72
67799;SHT30;54596;43.216;27.904;2023-06-19T07:29:11;29.19;55.25
67799;SHT30;54596;43.216;27.904;2023-06-19T07:31:37;28.75;56.07
67799;SHT30;54596;43.216;27.904;2023-06-19T07:34:03;27.88;58.18
67799;SHT30;54596;43.216;27.904;2023-06-19T07:36:29;28.54;57.79
67799;SHT30;54596;43.216;27.904;2023-06-19T07:38:55;30.27;54.81
67799;SHT30;54596;43.216;27.904;2023-06-19T07:41:20;30.76;53.42
67799;SHT30;54596;43.216;27.904;2023-06-19T07:43:46;30.38;54.12
67799;SHT30;54596;43.216;27.904;2023-06-19T07:46:11;31.10;52.64
67799;SHT30;54596;43.216;27.904;2023-06-19T07:48:37;32.35;51.02
67799;SHT30;54596;43.216;27.904;2023-06-19T07:51:02;32.14;50.63
67799;SHT30;54596;43.216;27.904;2023-06-19T07:53:29;30.38;53.31
67799;SHT30;54596;43.216;27.904;2023-06-19T07:55:55;30.12;54.81
67799;SHT30;54596;43.216;27.904;2023-06-19T07:58:20;29.37;55.93
67799;SHT30;54596;43.216;27.904;2023-06-19T08:00:46;28.48;57.70
67799;SHT30;54596;43.216;27.904;2023-06-19T08:03:11;28.18;58.82
67799;SHT30;54596;43.216;27.904;2023-06-19T08:05:37;28.20;59.49
67799;SHT30;54596;43.216;27.904;2023-06-19T08:08:03;27.92;59.38
67799;SHT30;54596;43.216;27.904;2023-06-19T08:10:29;27.31;60.93
67799;SHT30;54596;43.216;27.904;2023-06-19T08:12:54;27.44;61.49
67799;SHT30;54596;43.216;27.904;2023-06-19T08:15:20;27.47;60.82
67799;SHT30;54596;43.216;27.904;2023-06-19T08:17:45;27.44;61.44
67799;SHT30;54596;43.216;27.904;2023-06-19T08:20:13;27.44;61.30
67799;SHT30;54596;43.216;27.904;2023-06-19T08:22:38;27.14;61.79
67799;SHT30;54596;43.216;27.904;2023-06-19T08:25:05;26.93;61.94
67799;SHT30;54596;43.216;27.904;2023-06-19T08:27:30;26.59;63.18
67799;SHT30;54596;43.216;27.904;2023-06-19T08:29:56;26.55;63.88
67799;SHT30;54596;43.216;27.904;2023-06-19T08:32:21;26.34;63.90
67799;SHT30;54596;43.216;27.904;2023-06-19T08:34:47;26.27;64.45
67799;SHT30;54596;43.216;27.904;2023-06-19T08:37:12;26.20;64.56
67799;SHT30;54596;43.216;27.904;2023-06-19T08:39:38;26.14;64.23
67799;SHT30;54596;43.216;27.904;2023-06-19T08:42:08;26.10;64.97
67799;SHT30;54596;43.216;27.904;2023-06-19T08:44:35;26.16;65.11
67799;SHT30;54596;43.216;27.904;2023-06-19T08:47:02;26.21;64.77
67799;SHT30;54596;43.216;27.904;2023-06-19T08:49:34;26.16;64.87
67799;SHT30;54596;43.216;27.904;2023-06-19T08:52:03;26.12;64.36
67799;SHT30;54596;43.216;27.904;2023-06-19T08:54:29;25.95;64.68
67799;SHT30;54596;43.216;27.904;2023-06-19T08:56:59;25.95;65.16
67799;SHT30;54596;43.216;27.904;2023-06-19T08:59:25;25.88;64.81
67799;SHT30;54596;43.216;27.904;2023-06-19T09:01:53;25.90;64.73
67799;SHT30;54596;43.216;27.904;2023-06-19T09:04:20;25.99;64.86
67799;SHT30;54596;43.216;27.904;2023-06-19T09:06:54;25.75;64.22
67799;SHT30;54596;43.216;27.904;2023-06-19T09:09:20;25.86;64.12
67799;SHT30;54596;43.216;27.904;2023-06-19T09:12:01;25.92;63.88
67799;SHT30;54596;43.216;27.904;2023-06-19T09:17:00;25.99;64.16
67799;SHT30;54596;43.216;27.904;2023-06-19T09:19:26;26.04;64.08
67799;SHT30;54596;43.216;27.904;2023-06-19T09:21:51;26.09;63.88
67799;SHT30;54596;43.216;27.904;2023-06-19T09:24:17;26.14;64.02
67799;SHT30;54596;43.216;27.904;2023-06-19T09:26:42;26.20;64.13
67799;SHT30;54596;43.216;27.904;2023-06-19T09:29:14;26.29;64.06
67799;SHT30;54596;43.216;27.904;2023-06-19T09:31:41;26.19;63.63
67799;SHT30;54596;43.216;27.904;2023-06-19T09:34:07;26.12;63.30
67799;SHT30;54596;43.216;27.904;2023-06-19T09:36:34;26.10;63.50
67799;SHT30;54596;43.216;27.904;2023-06-19T09:39:02;26.23;63.65
67799;SHT30;54596;43.216;27.904;2023-06-19T09:41:29;26.26;64.13
67799;SHT30;54596;43.216;27.904;2023-06-19T09:43:55;26.33;64.74
67799;SHT30;54596;43.216;27.904;2023-06-19T09:46:32;26.37;65.00
67799;SHT30;54596;43.216;27.904;2023-06-19T09:49:01;26.41;64.76
67799;SHT30;54596;43.216;27.904;2023-06-19T09:51:33;26.36;64.82
67799;SHT30;54596;43.216;27.904;2023-06-19T09:54:02;26.41;64.81
67799;SHT30;54596;43.216;27.904;2023-06-19T09:56:29;26.43;64.44
67799;SHT30;54596;43.216;27.904;2023-06-19T09:58:57;26.41;63.92
67799;SHT30;54596;43.216;27.904;2023-06-19T10:01:27;26.45;62.59
67799;SHT30;54596;43.216;27.904;2023-06-19T10:04:05;26.33;62.36
67799;SHT30;54596;43.216;27.904;2023-06-19T10:06:31;26.43;62.09
67799;SHT30;54596;43.216;27.904;2023-06-19T10:09:06;26.55;62.40
67799;SHT30;54596;43.216;27.904;2023-06-19T10:11:49;26.58;61.28
67799;SHT30;54596;43.216;27.904;2023-06-19T10:14:22;26.75;61.01
67799;SHT30;54596;43.216;27.904;2023-06-19T10:16:48;26.93;60.31
67799;SHT30;54596;43.216;27.904;2023-06-19T10:19:18;27.20;60.25
67799;SHT30;54596;43.216;27.904;2023-06-19T10:21:48;27.52;60.44
67799;SHT30;54596;43.216;27.904;2023-06-19T10:24:18;27.72;60.00
67799;SHT30;54596;43.216;27.904;2023-06-19T10:26:59;28.03;60.64
67799;SHT30;54596;43.216;27.904;2023-06-19T10:29:25;28.13;59.10
67799;SHT30;54596;43.216;27.904;2023-06-19T10:31:53;28.34;59.09
67799;SHT30;54596;43.216;27.904;2023-06-19T10:34:19;28.33;59.02
67799;SHT30;54596;43.216;27.904;2023-06-19T10:36:44;28.36;58.40
67799;SHT30;54596;43.216;27.904;2023-06-19T10:39:10;28.58;58.57
67799;SHT30;54596;43.216;27.904;2023-06-19T10:41:39;28.24;56.03
67799;SHT30;54596;43.216;27.904;2023-06-19T10:44:07;28.09;57.10
67799;SHT30;54596;43.216;27.904;2023-06-19T10:46:39;28.38;56.89
67799;SHT30;54596;43.216;27.904;2023-06-19T10:49:07;28.61;56.95
67799;SHT30;54596;43.216;27.904;2023-06-19T10:51:36;28.86;57.32
67799;SHT30;54596;43.216;27.904;2023-06-19T10:54:02;28.96;56.91
67799;SHT30;54596;43.216;27.904;2023-06-19T10:56:29;28.83;56.69
67799;SHT30;54596;43.216;27.904;2023-06-19T10:59:04;28.86;57.73
67799;SHT30;54596;43.216;27.904;2023-06-19T11:01:38;28.86;57.87
67799;SHT30;54596;43.216;27.904;2023-06-19T11:04:06;28.66;56.54
67799;SHT30;54596;43.216;27.904;2023-06-19T11:06:32;28.31;55.93
67799;SHT30;54596;43.216;27.904;2023-06-19T11:08:58;28.13;56.55
67799;SHT30;54596;43.216;27.904;2023-06-19T11:11:52;28.05;56.89
67799;SHT30;54596;43.216;27.904;2023-06-19T11:14:17;27.93;57.24
67799;SHT30;54596;43.216;27.904;2023-06-19T11:16:45;27.69;58.20
67799;SHT30;54596;43.216;27.904;2023-06-19T11:19:19;27.77;58.62
67799;SHT30;54596;43.216;27.904;2023-06-19T11:21:47;27.82;58.48
67799;SHT30;54596;43.216;27.904;2023-06-19T11:24:14;27.88;57.72
67799;SHT30;54596;43.216;27.904;2023-06-19T11:26:50;27.86;58.09
67799;SHT30;54596;43.216;27.904;2023-06-19T11:29:22;27.66;58.70
67799;SHT30;54596;43.216;27.904;2023-06-19T11:31:49;27.86;58.64
67799;SHT30;54596;43.216;27.904;2023-06-19T11:34:15;27.99;58.98
67799;SHT30;54596;43.216;27.904;2023-06-19T11:36:42;28.21;58.82
67799;SHT30;54596;43.216;27.904;2023-06-19T11:39:12;28.20;58.26
67799;SHT30;54596;43.216;27.904;2023-06-19T11:41:39;28.24;58.47
67799;SHT30;54596;43.216;27.904;2023-06-19T11:44:06;28.12;59.06
67799;SHT30;54596;43.216;27.904;2023-06-19T11:46:34;27.99;58.53
67799;SHT30;54596;43.216;27.904;2023-06-19T11:49:16;27.82;57.22
67799;SHT30;54596;43.216;27.904;2023-06-19T11:51:43;27.90;57.17
67799;SHT30;54596;43.216;27.904;2023-06-19T11:54:10;27.96;57.10
67799;SHT30;54596;43.216;27.904;2023-06-19T11:56:37;28.16;57.40
67799;SHT30;54596;43.216;27.904;2023-06-19T11:59:03;28.33;57.21
67799;SHT30;54596;43.216;27.904;2023-06-19T12:01:30;28.43;57.17
67799;SHT30;54596;43.216;27.904;2023-06-19T12:03:56;28.43;56.85
67799;SHT30;54596;43.216;27.904;2023-06-19T12:06:22;28.51;57.41
67799;SHT30;54596;43.216;27.904;2023-06-19T12:08:47;28.76;57.23
67799;SHT30;54596;43.216;27.904;2023-06-19T12:11:13;28.79;57.17
67799;SHT30;54596;43.216;27.904;2023-06-19T12:13:41;28.61;56.55
67799;SHT30;54596;43.216;27.904;2023-06-19T12:16:07;28.58;56.20
67799;SHT30;54596;43.216;27.904;2023-06-19T12:18:33;28.51;56.50
67799;SHT30;54596;43.216;27.904;2023-06-19T12:20:58;28.65;56.41
67799;SHT30;54596;43.216;27.904;2023-06-19T12:23:24;28.59;56.54
67799;SHT30;54596;43.216;27.904;2023-06-19T12:25:49;28.55;56.89
67799;SHT30;54596;43.216;27.904;2023-06-19T12:28:15;28.38;57.59
67799;SHT30;54596;43.216;27.904;2023-06-19T12:30:44;28.37;58.22
67799;SHT30;54596;43.216;27.904;2023-06-19T12:33:10;28.38;57.97
67799;SHT30;54596;43.216;27.904;2023-06-19T12:35:39;28.27;58.21
67799;SHT30;54596;43.216;27.904;2023-06-19T12:38:05;28.20;58.85
67799;SHT30;54596;43.216;27.904;2023-06-19T12:40:30;28.12;59.31
67799;SHT30;54596;43.216;27.904;2023-06-19T12:42:55;27.86;59.88
67799;SHT30;54596;43.216;27.904;2023-06-19T12:45:21;27.95;59.78
67799;SHT30;54596;43.216;27.904;2023-06-19T12:47:46;27.79;59.68
67799;SHT30;54596;43.216;27.904;2023-06-19T12:50:12;27.71;59.47
67799;SHT30;54596;43.216;27.904;2023-06-19T12:52:37;27.73;59.86
67799;SHT30;54596;43.216;27.904;2023-06-19T12:55:03;27.71;60.33
67799;SHT30;54596;43.216;27.904;2023-06-19T12:57:29;27.72;60.71
67799;SHT30;54596;43.216;27.904;2023-06-19T12:59:54;27.52;60.62
67799;SHT30;54596;43.216;27.904;2023-06-19T13:02:20;27.44;60.52
67799;SHT30;54596;43.216;27.904;2023-06-19T13:04:45;27.41;59.90
67799;SHT30;54596;43.216;27.904;2023-06-19T13:07:11;27.51;60.07
67799;SHT30;54596;43.216;27.904;2023-06-19T13:09:38;27.62;60.06
67799;SHT30;54596;43.216;27.904;2023-06-19T13:12:03;27.63;59.01
67799;SHT30;54596;43.216;27.904;2023-06-19T13:14:29;27.54;58.97
67799;SHT30;54596;43.216;27.904;2023-06-19T13:16:56;27.57;58.99
67799;SHT30;54596;43.216;27.904;2023-06-19T13:19:22;27.44;58.36
67799;SHT30;54596;43.216;27.904;2023-06-19T13:21:48;27.45;58.34
67799;SHT30;54596;43.216;27.904;2023-06-19T13:24:14;27.37;58.77
67799;SHT30;54596;43.216;27.904;2023-06-19T13:26:39;27.33;58.58
67799;SHT30;54596;43.216;27.904;2023-06-19T13:29:05;27.33;58.19
67799;SHT30;54596;43.216;27.904;2023-06-19T13:31:30;27.33;58.23
67799;SHT30;54596;43.216;27.904;2023-06-19T13:33:56;27.34;58.37
67799;SHT30;54596;43.216;27.904;2023-06-19T13:36:22;27.40;58.61
67799;SHT30;54596;43.216;27.904;2023-06-19T13:38:49;27.34;58.67
67799;SHT30;54596;43.216;27.904;2023-06-19T13:41:15;27.38;58.82
67799;SHT30;54596;43.216;27.904;2023-06-19T13:43:40;27.43;58.82
67799;SHT30;54596;43.216;27.904;2023-06-19T13:46:06;27.40;59.46
67799;SHT30;54596;43.216;27.904;2023-06-19T13:48:32;27.40;59.97
67799;SHT30;54596;43.216;27.904;2023-06-19T13:51:00;27.38;60.38
67799;SHT30;54596;43.216;27.904;2023-06-19T13:53:25;27.37;60.25
67799;SHT30;54596;43.216;27.904;2023-06-19T13:55:53;27.33;60.68
67799;SHT30;54596;43.216;27.904;2023-06-19T13:58:19;27.31;60.61
67799;SHT30;54596;43.216;27.904;2023-06-19T14:00:45;27.35;60.78
67799;SHT30;54596;43.216;27.904;2023-06-19T14:03:10;27.34;60.43
67799;SHT30;54596;43.216;27.904;2023-06-19T14:05:36;27.30;60.21
67799;SHT30;54596;43.216;27.904;2023-06-19T14:08:02;27.29;60.81
67799;SHT30;54596;43.216;27.904;2023-06-19T14:10:29;27.30;60.86
67799;SHT30;54596;43.216;27.904;2023-06-19T14:12:54;27.30;61.63
67799;SHT30;54596;43.216;27.904;2023-06-19T14:15:20;27.24;66.04
67799;SHT30;54596;43.216;27.904;2023-06-19T14:17:45;27.03;67.88
67799;SHT30;54596;43.216;27.904;2023-06-19T14:20:11;26.85;69.42
67799;SHT30;54596;43.216;27.904;2023-06-19T14:22:37;26.61;69.90
67799;SHT30;54596;43.216;27.904;2023-06-19T14:25:02;26.52;70.21
67799;SHT30;54596;43.216;27.904;2023-06-19T14:27:28;26.49;70.07
67799;SHT30;54596;43.216;27.904;2023-06-19T14:29:56;26.40;70.42
67799;SHT30;54596;43.216;27.904;2023-06-19T14:32:23;26.44;69.97
67799;SHT30;54596;43.216;27.904;2023-06-19T14:34:49;26.30;70.13
67799;SHT30;54596;43.216;27.904;2023-06-19T14:37:16;26.31;70.24
67799;SHT30;54596;43.216;27.904;2023-06-19T14:39:42;26.34;70.95
67799;SHT30;54596;43.216;27.904;2023-06-19T14:42:08;26.31;71.40
67799;SHT30;54596;43.216;27.904;2023-06-19T14:44:35;26.33;71.34
67799;SHT30;54596;43.216;27.904;2023-06-19T14:47:01;26.31;71.69
67799;SHT30;54596;43.216;27.904;2023-06-19T14:49:27;26.37;71.35
67799;SHT30;54596;43.216;27.904;2023-06-19T14:51:52;26.37;71.17
67799;SHT30;54596;43.216;27.904;2023-06-19T14:54:19;26.34;71.04
67799;SHT30;54596;43.216;27.904;2023-06-19T14:56:45;26.17;71.22
67799;SHT30;54596;43.216;27.904;2023-06-19T14:59:13;26.19;70.85
67799;SHT30;54596;43.216;27.904;2023-06-19T15:01:39;26.20;70.48
67799;SHT30;54596;43.216;27.904;2023-06-19T15:04:04;26.16;70.57
67799;SHT30;54596;43.216;27.904;2023-06-19T15:06:29;26.00;70.93
67799;SHT30;54596;43.216;27.904;2023-06-19T15:08:55;26.06;70.42
67799;SHT30;54596;43.216;27.904;2023-06-19T15:11:20;25.97;70.64
67799;SHT30;54596;43.216;27.904;2023-06-19T15:13:46;25.79;71.02
67799;SHT30;54596;43.216;27.904;2023-06-19T15:16:11;25.88;71.77